Terminal Aerodrome Forecast
Issued by NWS Austin/San Antonio, TX

Home | Current Version | Previous Version | Text Only | Print | Product List | Glossary On
Versions: 1 2 3 4 5 6 7 8 9 10 11 12 13 14 15 16 17 18 19 20
000
FTUS44 KEWX 302320
TAFDRT
TAF
KDRT 302320Z 0100/0124 13014KT P6SM FEW050 SCT250
     FM010900 11007KT P6SM BKN025
     FM011600 14016KT P6SM BKN050=

USA.gov is the U.S. government's official web portal to all federal, state and local government web resources and services.